createdAt,value
2018-05-13T00:00:18.445Z,7.77
2018-05-13T00:02:46.043Z,7.63
2018-05-13T00:05:13.705Z,7.93
2018-05-13T00:07:41.197Z,7.93
2018-05-13T00:10:08.804Z,7.47
2018-05-13T00:12:36.381Z,7.50
2018-05-13T00:15:03.938Z,7.53
2018-05-13T00:17:31.468Z,7.13
2018-05-13T00:19:59.635Z,7.63
2018-05-13T00:22:27.201Z,7.53
2018-05-13T00:24:54.825Z,8.00
2018-05-13T00:27:22.404Z,7.73
2018-05-13T00:29:50.021Z,7.60
2018-05-13T00:32:17.577Z,7.07
2018-05-13T00:34:45.165Z,8.43
2018-05-13T00:37:12.693Z,7.57
2018-05-13T00:39:40.252Z,7.47
2018-05-13T00:42:07.777Z,7.23
2018-05-13T00:44:35.309Z,7.17
2018-05-13T00:47:02.831Z,7.23
2018-05-13T00:49:30.392Z,7.60
2018-05-13T00:51:57.943Z,7.53
2018-05-13T00:54:37.185Z,6.97
2018-05-13T00:57:04.746Z,7.17
2018-05-13T00:59:32.310Z,6.93
2018-05-13T01:01:59.852Z,6.90
2018-05-13T01:04:27.403Z,7.50
2018-05-13T01:06:54.923Z,7.47
2018-05-13T01:09:22.480Z,7.57
2018-05-13T01:11:50.063Z,7.50
2018-05-13T01:14:18.547Z,7.30
2018-05-13T01:16:46.075Z,7.90
2018-05-13T01:19:13.618Z,7.40
2018-05-13T01:21:41.166Z,7.87
2018-05-13T01:24:08.737Z,7.70
2018-05-13T01:26:36.252Z,6.77
2018-05-13T01:29:03.832Z,7.20
2018-05-13T01:31:31.379Z,7.57
2018-05-13T01:33:58.894Z,6.87
2018-05-13T01:36:26.436Z,7.13
2018-05-13T01:38:53.993Z,7.40
2018-05-13T01:41:21.537Z,7.47
2018-05-13T01:43:49.108Z,7.10
2018-05-13T01:46:16.684Z,7.13
2018-05-13T01:48:44.224Z,7.30
2018-05-13T01:51:11.798Z,6.90
2018-05-13T01:53:39.310Z,6.50
2018-05-13T01:56:06.865Z,6.70
2018-05-13T01:58:34.381Z,7.20
2018-05-13T02:01:01.980Z,7.10
2018-05-13T02:03:29.501Z,7.10
2018-05-13T02:05:57.068Z,6.90
2018-05-13T02:08:24.634Z,7.57
2018-05-13T02:10:52.175Z,7.50
2018-05-13T02:13:19.696Z,7.40
2018-05-13T02:15:47.236Z,7.60
2018-05-13T02:18:14.750Z,7.07
2018-05-13T02:20:42.306Z,7.03
2018-05-13T02:23:09.839Z,7.00
2018-05-13T02:25:37.368Z,6.70
2018-05-13T02:28:04.900Z,7.27
2018-05-13T02:30:32.468Z,6.97
2018-05-13T02:32:59.975Z,7.17
2018-05-13T02:35:27.521Z,7.30
2018-05-13T02:37:55.093Z,7.63
2018-05-13T02:40:22.652Z,7.07
2018-05-13T02:42:50.204Z,7.37
2018-05-13T02:45:17.759Z,6.97
2018-05-13T02:47:45.318Z,8.10
2018-05-13T02:50:12.912Z,7.07
2018-05-13T02:52:40.492Z,7.17
2018-05-13T02:55:08.045Z,8.10
2018-05-13T02:57:35.588Z,7.67
2018-05-13T03:00:03.134Z,7.67
2018-05-13T03:02:30.717Z,8.10
2018-05-13T03:04:58.261Z,7.23
2018-05-13T03:07:25.838Z,7.33
2018-05-13T03:09:53.414Z,7.77
2018-05-13T03:12:20.964Z,8.10
2018-05-13T03:14:48.495Z,8.10
2018-05-13T03:17:16.046Z,7.57
2018-05-13T03:19:43.624Z,7.90
2018-05-13T03:22:11.252Z,7.70
2018-05-13T03:24:38.845Z,7.77
2018-05-13T03:27:06.477Z,8.10
2018-05-13T03:29:34.053Z,8.00
2018-05-13T03:32:01.681Z,7.13
2018-05-13T03:34:29.254Z,8.23
2018-05-13T03:36:56.820Z,8.37
2018-05-13T03:39:24.398Z,8.50
2018-05-13T03:41:52.001Z,8.33
2018-05-13T03:44:19.535Z,8.43
2018-05-13T03:46:47.092Z,7.83
2018-05-13T03:49:14.604Z,8.20
2018-05-13T03:51:42.141Z,8.80
2018-05-13T03:54:09.706Z,8.50
2018-05-13T03:56:37.290Z,8.77
2018-05-13T03:59:04.840Z,8.90
2018-05-13T04:01:32.424Z,8.30
2018-05-13T04:03:59.972Z,8.77
2018-05-13T04:06:27.548Z,8.43
2018-05-13T04:09:06.862Z,8.60
2018-05-13T04:14:54.175Z,8.00
2018-05-13T04:17:21.709Z,8.03
2018-05-13T04:19:49.252Z,6.87
2018-05-13T04:22:16.798Z,7.37
2018-05-13T04:24:44.351Z,6.23
2018-05-13T04:27:11.890Z,6.30
2018-05-13T04:29:39.431Z,6.00
2018-05-13T04:32:06.990Z,6.50
2018-05-13T04:34:34.533Z,6.53
2018-05-13T04:37:02.043Z,6.20
2018-05-13T04:39:30.406Z,5.60
2018-05-13T04:41:57.953Z,6.40
2018-05-13T04:44:25.518Z,6.23
2018-05-13T04:46:53.164Z,7.17
2018-05-13T04:49:20.736Z,7.27
2018-05-13T04:51:48.303Z,6.97
2018-05-13T04:54:15.856Z,5.60
2018-05-13T04:56:43.388Z,6.60
2018-05-13T04:59:10.926Z,6.40
2018-05-13T05:01:38.474Z,6.87
2018-05-13T05:04:06.068Z,7.87
2018-05-13T05:06:34.046Z,8.20
2018-05-13T05:09:01.646Z,8.40
2018-05-13T05:11:29.167Z,8.97
2018-05-13T05:13:56.731Z,8.57
2018-05-13T05:16:24.317Z,8.53
2018-05-13T05:18:51.852Z,8.67
2018-05-13T05:21:19.401Z,8.77
2018-05-13T05:23:46.989Z,8.73
2018-05-13T05:26:14.537Z,8.80
2018-05-13T05:28:42.118Z,8.03
2018-05-13T05:31:09.636Z,8.10
2018-05-13T05:33:37.205Z,8.93
2018-05-13T05:36:04.773Z,9.20
2018-05-13T05:38:32.324Z,9.53
2018-05-13T05:40:59.876Z,9.70
2018-05-13T05:43:27.473Z,8.97
2018-05-13T05:45:55.008Z,9.50
2018-05-13T05:48:22.574Z,9.43
2018-05-13T05:50:50.156Z,9.10
2018-05-13T05:53:17.678Z,9.63
2018-05-13T05:55:45.280Z,9.20
2018-05-13T05:58:12.808Z,9.63
2018-05-13T06:00:40.376Z,8.53
2018-05-13T06:03:07.979Z,8.33
2018-05-13T06:05:36.156Z,8.47
2018-05-13T06:08:03.730Z,9.40
2018-05-13T06:10:31.337Z,8.90
2018-05-13T06:12:58.904Z,10.30
2018-05-13T06:15:26.479Z,9.93
2018-05-13T06:17:54.035Z,8.70
2018-05-13T06:20:21.621Z,9.50
2018-05-13T06:22:49.153Z,9.33
2018-05-13T06:25:16.782Z,7.50
2018-05-13T06:27:44.324Z,7.90
2018-05-13T06:30:11.863Z,7.23
2018-05-13T06:32:40.059Z,7.70
2018-05-13T06:35:07.633Z,8.63
2018-05-13T06:37:35.238Z,13.30
2018-05-13T06:40:02.806Z,8.13
2018-05-13T06:42:30.383Z,7.40
2018-05-13T06:44:57.964Z,9.40
2018-05-13T06:47:25.568Z,8.00
2018-05-13T06:49:53.725Z,9.20
2018-05-13T06:52:21.300Z,8.83
2018-05-13T06:54:52.185Z,10.07
2018-05-13T06:57:19.817Z,8.63
2018-05-13T06:59:47.372Z,8.33
2018-05-13T07:02:15.003Z,7.87
2018-05-13T07:04:42.589Z,8.13
2018-05-13T07:07:10.173Z,13.27
2018-05-13T07:09:37.752Z,9.43
2018-05-13T07:12:05.368Z,9.83
2018-05-13T07:14:32.940Z,9.63
2018-05-13T07:17:00.724Z,10.00
2018-05-13T07:19:28.332Z,10.00
2018-05-13T07:21:55.903Z,10.10
2018-05-13T07:24:23.471Z,10.87
2018-05-13T07:26:51.037Z,11.43
2018-05-13T07:29:18.710Z,10.93
2018-05-13T07:31:46.271Z,11.93
2018-05-13T07:34:13.812Z,11.13
2018-05-13T07:36:41.359Z,10.50
2018-05-13T07:39:08.935Z,10.83
2018-05-13T07:41:36.487Z,11.27
2018-05-13T07:44:04.035Z,11.87
2018-05-13T07:46:31.587Z,12.60
2018-05-13T07:48:59.148Z,13.03
2018-05-13T07:51:26.756Z,12.23
2018-05-13T07:53:54.322Z,12.13
2018-05-13T07:56:21.937Z,12.73
2018-05-13T07:58:49.484Z,13.87
2018-05-13T08:01:17.068Z,13.27
2018-05-13T08:03:44.663Z,13.67
2018-05-13T08:06:12.360Z,14.67
2018-05-13T08:08:39.911Z,15.40
2018-05-13T08:11:07.572Z,17.27
2018-05-13T08:13:35.299Z,16.97
2018-05-13T08:16:02.841Z,19.33
2018-05-13T08:18:30.375Z,20.23
2018-05-13T08:20:57.962Z,18.87
2018-05-13T08:23:25.526Z,19.87
2018-05-13T08:25:53.206Z,20.00
2018-05-13T08:28:20.781Z,21.83
2018-05-13T08:30:48.423Z,21.53
2018-05-13T08:33:16.414Z,22.07
2018-05-13T08:35:43.993Z,22.67
2018-05-13T08:38:11.559Z,22.93
2018-05-13T08:40:39.116Z,21.77
2018-05-13T08:43:06.740Z,22.27
2018-05-13T08:45:34.380Z,21.60
2018-05-13T08:48:01.997Z,21.90
2018-05-13T08:50:29.579Z,22.07
2018-05-13T08:52:57.157Z,23.77
2018-05-13T08:55:24.745Z,23.03
2018-05-13T08:57:52.343Z,22.20
2018-05-13T09:00:19.970Z,23.53
2018-05-13T09:02:47.546Z,23.07
2018-05-13T09:05:15.132Z,22.07
2018-05-13T09:07:42.700Z,25.67
2018-05-13T09:10:10.622Z,23.37
2018-05-13T09:12:38.225Z,25.73
2018-05-13T09:15:05.775Z,26.43
2018-05-13T09:17:33.327Z,23.83
2018-05-13T09:20:01.149Z,25.37
2018-05-13T09:22:28.694Z,26.77
2018-05-13T09:24:56.340Z,28.50
2018-05-13T09:27:23.931Z,28.67
2018-05-13T09:29:51.487Z,29.77
2018-05-13T09:32:19.046Z,28.87
2018-05-13T09:34:46.598Z,25.73
2018-05-13T09:37:14.165Z,28.27
2018-05-13T09:39:41.685Z,26.60
2018-05-13T09:42:09.232Z,29.57
2018-05-13T09:44:36.806Z,27.50
2018-05-13T09:47:04.414Z,27.57
2018-05-13T09:49:31.944Z,28.33
2018-05-13T09:51:59.555Z,28.93
2018-05-13T09:54:27.089Z,29.20
2018-05-13T09:56:54.821Z,31.50
2018-05-13T09:59:24.449Z,30.53
2018-05-13T10:01:52.014Z,31.43
2018-05-13T10:04:19.620Z,30.63
2018-05-13T10:06:47.169Z,32.37
2018-05-13T10:09:14.755Z,34.37
2018-05-13T10:11:42.383Z,31.53
2018-05-13T10:14:09.957Z,33.10
2018-05-13T10:16:37.504Z,38.63
2018-05-13T10:19:05.089Z,38.13
2018-05-13T10:21:32.633Z,36.53
2018-05-13T10:24:00.232Z,36.53
2018-05-13T10:26:27.799Z,41.50
2018-05-13T10:28:55.359Z,39.83
2018-05-13T10:31:22.926Z,39.93
2018-05-13T10:33:51.463Z,39.50
2018-05-13T10:36:19.073Z,42.43
2018-05-13T10:38:46.575Z,45.40
2018-05-13T10:41:14.183Z,41.67
2018-05-13T10:43:41.754Z,44.10
2018-05-13T10:46:09.388Z,47.17
2018-05-13T10:48:36.976Z,47.37
2018-05-13T10:51:04.519Z,46.93
2018-05-13T10:53:32.118Z,49.67
2018-05-13T10:55:59.659Z,52.30
2018-05-13T10:58:27.213Z,49.40
2018-05-13T11:00:54.745Z,48.27
2018-05-13T11:03:22.274Z,49.80
2018-05-13T11:05:49.811Z,47.37
2018-05-13T11:08:17.381Z,46.20
2018-05-13T11:10:44.956Z,44.80
2018-05-13T11:13:12.484Z,44.47
2018-05-13T11:15:40.016Z,44.03
2018-05-13T11:18:08.459Z,43.77
2018-05-13T11:20:36.107Z,42.90
2018-05-13T11:23:03.565Z,44.43
2018-05-13T11:25:31.119Z,45.33
2018-05-13T11:27:58.682Z,45.07
2018-05-13T11:30:26.231Z,47.03
2018-05-13T11:32:53.755Z,46.97
2018-05-13T11:35:21.731Z,48.10
2018-05-13T11:37:49.290Z,45.90
2018-05-13T11:40:16.849Z,43.23
2018-05-13T11:42:44.445Z,40.53
2018-05-13T11:45:11.988Z,41.90
2018-05-13T11:47:39.531Z,44.03
2018-05-13T11:50:07.154Z,44.90
2018-05-13T11:52:34.692Z,45.07
2018-05-13T11:55:02.275Z,42.90
2018-05-13T11:57:29.828Z,43.70
2018-05-13T11:59:57.387Z,41.57
2018-05-13T12:02:24.955Z,40.57
2018-05-13T12:04:52.496Z,39.53
2018-05-13T12:07:20.040Z,37.80
2018-05-13T12:09:47.614Z,38.03
2018-05-13T12:12:15.156Z,38.90
2018-05-13T12:14:42.726Z,38.27
2018-05-13T12:17:10.278Z,36.23
2018-05-13T12:19:37.832Z,36.37
2018-05-13T12:22:05.379Z,31.93
2018-05-13T12:24:32.943Z,30.33
2018-05-13T12:27:00.569Z,28.93
2018-05-13T12:29:28.150Z,26.87
2018-05-13T12:31:55.755Z,26.97
2018-05-13T12:34:23.343Z,26.73
2018-05-13T12:36:50.874Z,28.43
2018-05-13T12:39:18.451Z,27.90
2018-05-13T12:41:45.997Z,30.47
2018-05-13T12:44:13.612Z,32.47
2018-05-13T12:46:41.164Z,35.83
2018-05-13T12:49:08.717Z,36.50
2018-05-13T12:51:36.345Z,36.00
2018-05-13T12:54:03.914Z,37.93
2018-05-13T12:56:31.494Z,41.20
2018-05-13T12:58:59.106Z,42.73
2018-05-13T13:01:26.708Z,44.17
2018-05-13T13:03:54.335Z,45.43
2018-05-13T13:06:21.870Z,44.73
2018-05-13T13:08:49.428Z,45.53
2018-05-13T13:11:16.977Z,45.93
2018-05-13T13:13:44.549Z,46.43
2018-05-13T13:16:12.140Z,47.77
2018-05-13T13:18:39.710Z,47.40
2018-05-13T13:21:07.264Z,51.43
2018-05-13T13:23:34.833Z,53.33
2018-05-13T13:26:02.495Z,50.87
2018-05-13T13:28:30.071Z,50.17
2018-05-13T13:30:57.659Z,53.80
2018-05-13T13:33:25.180Z,50.53
2018-05-13T13:35:52.792Z,53.00
2018-05-13T13:38:20.350Z,53.93
2018-05-13T13:40:47.949Z,51.20
2018-05-13T13:43:15.541Z,52.00
2018-05-13T13:45:43.118Z,53.23
2018-05-13T13:48:10.712Z,54.10
2018-05-13T13:50:38.274Z,53.70
2018-05-13T13:53:05.829Z,55.27
2018-05-13T13:55:33.421Z,52.87
2018-05-13T13:58:01.064Z,53.67
2018-05-13T14:00:28.679Z,52.83
2018-05-13T14:02:56.251Z,54.67
2018-05-13T14:05:24.723Z,55.53
2018-05-13T14:07:52.293Z,51.00
2018-05-13T14:10:19.969Z,51.23
2018-05-13T14:12:47.624Z,48.33
2018-05-13T14:15:15.279Z,48.83
2018-05-13T14:17:42.892Z,45.67
2018-05-13T14:20:10.496Z,36.97
2018-05-13T14:22:38.033Z,34.53
2018-05-13T14:25:05.607Z,34.53
2018-05-13T14:27:33.180Z,33.43
2018-05-13T14:30:00.815Z,33.90
2018-05-13T14:32:28.684Z,34.17
2018-05-13T14:34:56.546Z,38.20
2018-05-13T14:37:24.184Z,37.53
2018-05-13T14:39:51.812Z,37.43
2018-05-13T14:42:19.545Z,37.43
2018-05-13T14:44:47.124Z,36.63
2018-05-13T14:47:14.729Z,38.20
2018-05-13T14:49:42.379Z,38.30
2018-05-13T14:52:09.976Z,38.13
2018-05-13T14:54:37.772Z,39.00
2018-05-13T14:57:05.436Z,38.77
2018-05-13T14:59:33.865Z,39.70
2018-05-13T15:02:01.425Z,37.97
2018-05-13T15:04:29.029Z,40.17
2018-05-13T15:06:56.596Z,40.90
2018-05-13T15:09:25.264Z,40.07
2018-05-13T15:11:51.742Z,38.07
2018-05-13T15:14:19.332Z,38.20
2018-05-13T15:16:46.977Z,39.07
2018-05-13T15:19:14.547Z,39.80
2018-05-13T15:21:42.154Z,39.37
2018-05-13T15:24:09.745Z,38.07
2018-05-13T15:26:37.383Z,41.57
2018-05-13T15:29:05.011Z,43.30
2018-05-13T15:31:32.554Z,43.33
2018-05-13T15:34:00.153Z,47.40
2018-05-13T15:36:28.276Z,49.77
2018-05-13T15:38:55.858Z,51.40
2018-05-13T15:41:23.390Z,53.00
2018-05-13T15:43:50.994Z,52.73
2018-05-13T15:46:18.600Z,57.00
2018-05-13T15:48:46.187Z,56.40
2018-05-13T15:51:13.800Z,57.43
2018-05-13T15:53:41.449Z,57.77
2018-05-13T15:56:09.019Z,56.77
2018-05-13T15:58:36.634Z,56.50
2018-05-13T16:01:04.176Z,56.50
2018-05-13T16:03:31.803Z,57.30
2018-05-13T16:05:59.426Z,52.73
2018-05-13T16:08:27.099Z,50.00
2018-05-13T16:10:54.807Z,47.67
2018-05-13T16:13:22.387Z,44.57
2018-05-13T16:15:49.973Z,41.43
2018-05-13T16:18:17.572Z,41.73
2018-05-13T16:20:45.278Z,40.70
2018-05-13T16:23:12.864Z,38.93
2018-05-13T16:25:40.415Z,41.23
2018-05-13T16:28:08.031Z,38.60
2018-05-13T16:30:35.625Z,39.27
2018-05-13T16:33:03.185Z,39.27
2018-05-13T16:35:30.813Z,41.30
2018-05-13T16:37:58.404Z,41.33
2018-05-13T16:40:26.135Z,41.57
2018-05-13T16:42:55.285Z,41.23
2018-05-13T16:45:22.884Z,43.50
2018-05-13T16:47:50.519Z,43.07
2018-05-13T16:50:18.310Z,43.10
2018-05-13T16:52:45.968Z,42.37
2018-05-13T16:55:13.528Z,45.13
2018-05-13T16:57:41.164Z,45.63
2018-05-13T17:00:08.886Z,45.40
2018-05-13T17:02:36.616Z,46.20
2018-05-13T17:05:04.270Z,59.67
2018-05-13T17:07:31.949Z,42.37
2018-05-13T17:09:59.588Z,42.93
2018-05-13T17:12:27.181Z,40.17
2018-05-13T17:14:54.825Z,39.70
2018-05-13T17:17:22.455Z,41.63
2018-05-13T17:19:49.987Z,37.63
2018-05-13T17:22:17.605Z,36.10
2018-05-13T17:24:45.476Z,35.87
2018-05-13T17:27:13.112Z,31.53
2018-05-13T17:29:40.721Z,35.30
2018-05-13T17:32:08.307Z,37.40
2018-05-13T17:34:35.899Z,35.83
2018-05-13T17:37:03.479Z,35.60
2018-05-13T17:39:31.091Z,34.23
2018-05-13T17:41:58.662Z,33.27
2018-05-13T17:44:26.366Z,33.40
2018-05-13T17:46:54.225Z,31.83
2018-05-13T17:49:21.880Z,33.10
2018-05-13T17:51:57.011Z,34.00
2018-05-13T17:54:25.497Z,32.57
2018-05-13T17:56:53.152Z,34.40
2018-05-13T17:59:20.817Z,34.70
2018-05-13T18:01:48.490Z,33.67
2018-05-13T18:04:16.097Z,32.60
2018-05-13T18:06:43.819Z,35.00
2018-05-13T18:09:11.517Z,34.87
2018-05-13T18:11:39.487Z,35.40
2018-05-13T18:14:07.125Z,34.30
2018-05-13T18:16:34.692Z,35.80
2018-05-13T18:19:02.281Z,32.83
2018-05-13T18:21:29.957Z,35.50
2018-05-13T18:23:57.510Z,36.57
2018-05-13T18:26:25.304Z,36.33
2018-05-13T18:28:52.998Z,37.60
2018-05-13T18:31:20.654Z,37.93
2018-05-13T18:33:48.585Z,37.40
2018-05-13T18:36:16.903Z,37.10
2018-05-13T18:38:44.762Z,38.47
2018-05-13T18:41:12.659Z,37.03
2018-05-13T18:43:41.143Z,39.60
2018-05-13T18:46:08.901Z,39.60
2018-05-13T18:48:36.541Z,39.47
2018-05-13T18:51:04.367Z,41.47
2018-05-13T18:53:32.057Z,41.33
2018-05-13T18:55:59.720Z,42.20
2018-05-13T18:58:27.640Z,42.33
2018-05-13T19:00:55.378Z,42.20
2018-05-13T19:03:23.025Z,42.37
2018-05-13T19:05:50.718Z,41.70
2018-05-13T19:08:18.559Z,42.00
2018-05-13T19:10:46.188Z,44.77
2018-05-13T19:13:13.793Z,44.13
2018-05-13T19:15:41.372Z,46.70
2018-05-13T19:18:08.921Z,46.70
2018-05-13T19:20:36.490Z,47.33
2018-05-13T19:23:04.087Z,46.53
2018-05-13T19:25:31.662Z,48.90
2018-05-13T19:27:59.216Z,47.30
2018-05-13T19:30:26.877Z,48.77
2018-05-13T19:32:54.364Z,47.93
2018-05-13T19:35:22.075Z,50.80
2018-05-13T19:37:49.618Z,49.53
2018-05-13T19:40:17.219Z,49.70
2018-05-13T19:42:44.762Z,50.77
2018-05-13T19:45:12.320Z,51.10
2018-05-13T19:47:39.867Z,48.53
2018-05-13T19:50:07.442Z,43.83
2018-05-13T19:52:35.032Z,48.13
2018-05-13T19:55:09.052Z,48.23
2018-05-13T19:57:36.662Z,49.07
2018-05-13T20:00:04.257Z,44.60
2018-05-13T20:02:31.917Z,49.10
2018-05-13T20:04:59.561Z,46.90
2018-05-13T20:07:27.157Z,46.13
2018-05-13T20:09:55.555Z,46.93
2018-05-13T20:12:23.274Z,44.67
2018-05-13T20:14:50.967Z,44.77
2018-05-13T20:17:18.676Z,46.03
2018-05-13T20:19:46.292Z,43.07
2018-05-13T20:22:14.074Z,43.00
2018-05-13T20:24:41.667Z,41.63
2018-05-13T20:27:09.314Z,43.20
2018-05-13T20:29:37.014Z,43.90
2018-05-13T20:32:04.696Z,42.80
2018-05-13T20:34:33.289Z,41.87
2018-05-13T20:37:01.051Z,42.97
2018-05-13T20:39:28.675Z,43.17
2018-05-13T20:41:56.315Z,43.50
2018-05-13T20:44:24.110Z,42.60
2018-05-13T20:46:51.601Z,43.67
2018-05-13T20:49:19.161Z,44.47
2018-05-13T20:51:46.849Z,43.67
2018-05-13T20:54:14.961Z,43.93
2018-05-13T20:56:42.535Z,45.97
2018-05-13T20:59:10.121Z,47.23
2018-05-13T21:01:37.669Z,47.63
2018-05-13T21:04:05.259Z,46.87
2018-05-13T21:06:32.833Z,44.13
2018-05-13T21:09:00.429Z,47.30
2018-05-13T21:11:27.981Z,46.20
2018-05-13T21:13:55.557Z,46.47
2018-05-13T21:16:23.116Z,47.73
2018-05-13T21:18:50.706Z,47.40
2018-05-13T21:21:18.305Z,45.03
2018-05-13T21:23:45.881Z,45.33
2018-05-13T21:26:13.477Z,48.10
2018-05-13T21:28:41.082Z,50.20
2018-05-13T21:31:08.653Z,47.27
2018-05-13T21:33:36.263Z,48.33
2018-05-13T21:36:03.864Z,47.73
2018-05-13T21:38:31.546Z,46.60
2018-05-13T21:40:59.126Z,45.97
2018-05-13T21:43:26.701Z,45.70
2018-05-13T21:45:54.391Z,43.30
2018-05-13T21:48:22.017Z,44.27
2018-05-13T21:50:49.635Z,42.50
2018-05-13T21:53:17.238Z,43.80
2018-05-13T21:55:44.817Z,42.10
2018-05-13T21:58:12.417Z,43.57
2018-05-13T22:00:39.982Z,42.53
2018-05-13T22:03:07.564Z,41.80
2018-05-13T22:05:35.135Z,42.03
2018-05-13T22:08:02.718Z,43.40
2018-05-13T22:10:30.245Z,44.07
2018-05-13T22:12:58.808Z,41.07
2018-05-13T22:15:26.347Z,41.37
2018-05-13T22:17:53.899Z,42.37
2018-05-13T22:20:21.419Z,40.07
2018-05-13T22:22:48.978Z,40.93
2018-05-13T22:25:16.516Z,42.50
2018-05-13T22:27:44.067Z,42.47
2018-05-13T22:30:11.665Z,42.43
2018-05-13T22:32:39.241Z,42.60
2018-05-13T22:35:06.801Z,44.60
2018-05-13T22:37:34.414Z,44.30
2018-05-13T22:40:02.028Z,46.37
2018-05-13T22:42:29.573Z,46.80
2018-05-13T22:44:57.232Z,48.33
2018-05-13T22:47:24.794Z,47.20
2018-05-13T22:49:52.369Z,48.83
2018-05-13T22:52:20.079Z,51.43
2018-05-13T22:54:47.688Z,50.73
2018-05-13T22:57:15.261Z,51.53
2018-05-13T22:59:42.857Z,53.70
2018-05-13T23:02:10.393Z,52.70
2018-05-13T23:04:38.064Z,56.00
2018-05-13T23:07:05.643Z,57.17
2018-05-13T23:09:33.231Z,54.97
2018-05-13T23:12:00.786Z,54.03
2018-05-13T23:14:28.385Z,55.53
2018-05-13T23:16:55.954Z,60.57
2018-05-13T23:19:23.553Z,57.93
2018-05-13T23:21:51.092Z,58.47
2018-05-13T23:24:18.678Z,57.67
2018-05-13T23:26:46.218Z,59.70
2018-05-13T23:29:13.793Z,59.47
2018-05-13T23:31:41.340Z,58.90
2018-05-13T23:34:08.936Z,59.50
2018-05-13T23:36:36.466Z,57.13
2018-05-13T23:39:04.027Z,58.17
2018-05-13T23:41:31.588Z,57.63
2018-05-13T23:43:59.123Z,61.30
2018-05-13T23:46:26.721Z,57.53
2018-05-13T23:48:54.272Z,60.33
2018-05-13T23:51:21.864Z,60.93
2018-05-13T23:53:49.423Z,60.03
2018-05-13T23:56:17.044Z,59.47
2018-05-13T23:58:44.613Z,59.97
